createdAt,value
2023-04-08T00:02:41.767Z,21.10
2023-04-08T00:12:43.966Z,19.63
2023-04-08T00:22:46.709Z,18.63
2023-04-08T00:32:48.812Z,20.03
2023-04-08T00:42:51.207Z,28.07
2023-04-08T00:52:53.289Z,36.37
2023-04-08T01:03:07.402Z,25.53
2023-04-08T01:13:12.454Z,23.63
2023-04-08T01:23:24.826Z,21.90
2023-04-08T01:33:28.002Z,23.30
2023-04-08T01:43:32.220Z,21.23
2023-04-08T01:53:34.346Z,19.97
2023-04-08T02:03:37.172Z,21.47
2023-04-08T02:13:39.765Z,19.53
2023-04-08T02:23:42.620Z,23.13
2023-04-08T02:33:44.794Z,22.13
2023-04-08T02:43:47.986Z,28.00
2023-04-08T02:53:50.208Z,23.83
2023-04-08T03:03:52.632Z,34.77
2023-04-08T03:13:54.747Z,28.80
2023-04-08T03:23:56.787Z,22.67
2023-04-08T03:33:59.072Z,31.67
2023-04-08T03:44:01.151Z,29.30
2023-04-08T03:54:03.324Z,24.20
2023-04-08T04:04:05.678Z,29.50
2023-04-08T04:14:07.892Z,19.77
2023-04-08T04:24:09.942Z,23.17
2023-04-08T04:34:12.006Z,17.27
2023-04-08T04:44:14.062Z,20.67
2023-04-08T04:54:16.108Z,28.90
2023-04-08T05:04:18.200Z,15.27
2023-04-08T05:14:20.248Z,18.87
2023-04-08T05:24:22.524Z,12.53
2023-04-08T05:34:24.775Z,12.70
2023-04-08T05:44:27.002Z,14.70
2023-04-08T05:54:29.542Z,13.67
2023-04-08T06:04:32.027Z,11.17
2023-04-08T06:14:34.156Z,12.57
2023-04-08T06:24:36.262Z,13.33
2023-04-08T06:34:38.485Z,12.63
2023-04-08T06:44:40.615Z,14.33
2023-04-08T06:54:43.239Z,17.90
2023-04-08T07:04:46.847Z,19.43
2023-04-08T07:14:49.241Z,20.73
2023-04-08T07:24:51.979Z,19.93
2023-04-08T07:34:54.145Z,18.30
2023-04-08T07:44:56.282Z,18.03
2023-04-08T07:54:58.460Z,14.63
2023-04-08T08:05:01.608Z,13.20
2023-04-08T08:15:04.214Z,12.83
2023-04-08T08:25:07.756Z,12.70
2023-04-08T08:35:09.908Z,12.63
2023-04-08T08:45:12.046Z,11.67
2023-04-08T08:55:32.526Z,8.93
2023-04-08T09:05:50.469Z,8.37
2023-04-08T09:16:06.414Z,8.93
2023-04-08T09:26:22.465Z,8.00
2023-04-08T09:36:27.724Z,7.80
2023-04-08T09:46:48.843Z,7.67
2023-04-08T09:57:03.578Z,7.73
2023-04-08T10:07:07.571Z,8.77
2023-04-08T10:17:25.204Z,8.50
2023-04-08T10:27:40.986Z,8.53
2023-04-08T10:37:44.070Z,9.50
2023-04-08T10:47:46.365Z,9.63
2023-04-08T10:57:49.072Z,9.90
2023-04-08T11:07:52.506Z,11.17
2023-04-08T11:17:55.124Z,10.00
2023-04-08T11:27:57.399Z,9.83
2023-04-08T11:37:59.636Z,9.53
2023-04-08T11:48:09.161Z,7.90
2023-04-08T11:58:11.417Z,7.73
2023-04-08T12:08:13.504Z,6.93
2023-04-08T12:18:16.480Z,7.50
2023-04-08T12:28:18.602Z,7.13
2023-04-08T12:38:20.993Z,6.87
2023-04-08T12:48:23.099Z,7.77
2023-04-08T12:58:25.722Z,10.17
2023-04-08T13:08:27.967Z,8.07
2023-04-08T13:18:30.219Z,8.48
2023-04-08T13:28:32.289Z,8.60
2023-04-08T13:38:34.645Z,9.43
2023-04-08T13:48:36.751Z,9.37
2023-04-08T13:58:38.826Z,8.70
2023-04-08T14:08:41.465Z,10.20
2023-04-08T14:18:43.868Z,11.07
2023-04-08T14:28:47.640Z,10.60
2023-04-08T14:38:50.993Z,10.53
2023-04-08T14:48:53.536Z,9.88
2023-04-08T14:58:56.028Z,10.10
2023-04-08T15:08:58.474Z,9.30
2023-04-08T15:19:00.714Z,9.80
2023-04-08T15:29:04.261Z,9.73
2023-04-08T15:39:06.465Z,10.35
2023-04-08T15:49:08.751Z,9.67
2023-04-08T15:59:11.283Z,9.73
2023-04-08T16:09:13.436Z,10.90
2023-04-08T16:19:15.468Z,11.40
2023-04-08T16:29:17.573Z,15.48
2023-04-08T16:39:20.063Z,11.83
2023-04-08T16:49:22.716Z,12.90
2023-04-08T16:59:24.999Z,13.60
2023-04-08T17:09:31.382Z,15.60
2023-04-08T17:19:33.832Z,16.50
2023-04-08T17:29:35.988Z,16.27
2023-04-08T17:39:40.617Z,18.33
2023-04-08T17:49:43.009Z,26.67
2023-04-08T17:59:45.420Z,18.50
2023-04-08T18:09:49.021Z,18.93
2023-04-08T18:19:51.156Z,17.77
2023-04-08T18:29:53.462Z,16.97
2023-04-08T18:39:55.816Z,17.83
2023-04-08T18:49:58.642Z,15.60
2023-04-08T19:00:01.072Z,15.70
2023-04-08T19:10:03.349Z,18.07
2023-04-08T19:20:06.072Z,15.57
2023-04-08T19:30:08.854Z,16.25
2023-04-08T19:40:13.664Z,16.70
2023-04-08T19:50:15.730Z,18.60
2023-04-08T20:00:17.885Z,18.83
2023-04-08T20:10:20.719Z,16.40
2023-04-08T20:20:26.317Z,15.57
2023-04-08T20:30:29.868Z,16.13
2023-04-08T20:40:32.065Z,17.30
2023-04-08T20:50:34.640Z,17.97
2023-04-08T21:00:36.764Z,20.90
2023-04-08T21:10:38.966Z,20.27
2023-04-08T21:20:41.099Z,19.17
2023-04-08T21:30:43.234Z,17.53
2023-04-08T21:40:45.356Z,17.70
2023-04-08T21:50:47.565Z,17.57
2023-04-08T22:00:50.745Z,18.20
2023-04-08T22:10:53.107Z,18.93
2023-04-08T22:20:55.485Z,20.57
2023-04-08T22:30:57.563Z,19.90
2023-04-08T22:40:59.687Z,20.67
2023-04-08T22:51:01.977Z,21.57
2023-04-08T23:01:24.336Z,21.73
2023-04-08T23:11:27.135Z,22.33
2023-04-08T23:21:29.503Z,20.60
2023-04-08T23:31:31.714Z,20.33
2023-04-08T23:41:33.804Z,20.07
2023-04-08T23:51:36.267Z,18.93
